Terminal Aerodrome Forecast
Issued by NWS

Home | Current Version | Previous Version | Graphics & Text | Print | Product List | Glossary On
Versions: 1 2 3 4 5 6 7 8 9 10 11 12 13 14 15 16 17 18 19 20 21 22 23 24 25 26 27 28 29 30 31 32 33 34 35
000
FTUS43 KLOT 310917 AAA
TAFDPA
TAF AMD
KDPA 310917Z 3109/0106 30009KT P6SM SKC
     FM311100 35011KT P6SM BKN009
     FM311500 34011KT P6SM BKN025
     FM311900 30010KT P6SM SCT040
     FM010000 27005KT P6SM SKC=

USA.gov is the U.S. government's official web portal to all federal, state and local government web resources and services.